createdAt,value
2019-03-25T00:00:58.980Z,25.60
2019-03-25T00:03:29.565Z,25.37
2019-03-25T00:06:00.047Z,25.43
2019-03-25T00:08:30.518Z,26.30
2019-03-25T00:11:01.151Z,24.70
2019-03-25T00:13:31.665Z,25.07
2019-03-25T00:16:02.519Z,24.53
2019-03-25T00:18:33.071Z,25.63
2019-03-25T00:21:06.090Z,23.00
2019-03-25T00:23:36.633Z,24.63
2019-03-25T00:26:07.236Z,24.60
2019-03-25T00:28:37.756Z,25.43
2019-03-25T00:31:08.312Z,23.67
2019-03-25T00:33:38.807Z,24.47
2019-03-25T00:36:09.263Z,23.53
2019-03-25T00:38:39.684Z,25.10
2019-03-25T00:41:10.315Z,23.70
2019-03-25T00:43:40.902Z,24.20
2019-03-25T00:46:11.419Z,22.97
2019-03-25T00:48:43.017Z,23.87
2019-03-25T00:51:13.467Z,23.47
2019-03-25T00:53:43.974Z,23.30
2019-03-25T00:56:14.498Z,22.77
2019-03-25T00:58:45.023Z,21.93
2019-03-25T01:01:15.745Z,22.73
2019-03-25T01:03:46.358Z,23.50
2019-03-25T01:06:16.910Z,23.17
2019-03-25T01:08:47.420Z,22.73
2019-03-25T01:11:18.106Z,22.37
2019-03-25T01:13:48.637Z,21.80
2019-03-25T01:16:19.597Z,22.27
2019-03-25T01:18:50.066Z,20.90
2019-03-25T01:21:20.545Z,20.03
2019-03-25T01:23:51.068Z,18.33
2019-03-25T01:26:21.618Z,19.00
2019-03-25T01:28:52.202Z,19.17
2019-03-25T01:31:22.586Z,19.33
2019-03-25T01:33:52.975Z,19.37
2019-03-25T01:36:23.378Z,20.10
2019-03-25T01:38:53.806Z,19.83
2019-03-25T01:41:24.303Z,19.97
2019-03-25T01:43:55.145Z,18.23
2019-03-25T01:46:25.550Z,19.63
2019-03-25T01:48:56.967Z,19.63
2019-03-25T01:51:27.446Z,18.23
2019-03-25T01:53:57.850Z,19.23
2019-03-25T01:56:28.271Z,19.03
2019-03-25T01:59:00.835Z,20.40
2019-03-25T02:01:31.359Z,20.07
2019-03-25T02:10:04.055Z,18.40
2019-03-25T02:12:34.420Z,19.40
2019-03-25T02:15:06.475Z,18.30
2019-03-25T02:17:36.918Z,20.47
2019-03-25T02:20:07.722Z,19.57
2019-03-25T02:22:39.138Z,18.40
2019-03-25T02:25:10.284Z,19.00
2019-03-25T02:27:40.798Z,19.27
2019-03-25T02:30:11.726Z,18.17
2019-03-25T02:32:42.236Z,17.10
2019-03-25T02:35:13.010Z,19.37
2019-03-25T02:37:43.484Z,19.53
2019-03-25T02:40:14.427Z,18.83
2019-03-25T02:42:44.894Z,17.33
2019-03-25T02:45:15.303Z,17.30
2019-03-25T02:47:45.819Z,17.83
2019-03-25T02:50:17.245Z,17.87
2019-03-25T02:52:47.726Z,17.67
2019-03-25T02:55:18.224Z,16.83
2019-03-25T02:57:48.824Z,16.50
2019-03-25T03:00:35.434Z,16.07
2019-03-25T03:03:07.615Z,16.53
2019-03-25T03:05:38.339Z,17.37
2019-03-25T03:08:08.999Z,17.80
2019-03-25T03:10:39.465Z,15.27
2019-03-25T03:13:10.084Z,16.90
2019-03-25T03:15:40.585Z,17.17
2019-03-25T03:18:11.063Z,17.70
2019-03-25T03:20:41.571Z,16.93
2019-03-25T03:23:12.149Z,16.97
2019-03-25T03:25:56.250Z,17.03
2019-03-25T03:28:14.876Z,17.47
2019-03-25T03:30:46.205Z,16.57
2019-03-25T03:33:16.711Z,16.20
2019-03-25T03:35:47.364Z,16.97
2019-03-25T03:38:17.950Z,16.43
2019-03-25T03:40:48.421Z,17.17
2019-03-25T03:43:21.638Z,16.27
2019-03-25T03:45:52.163Z,17.07
2019-03-25T03:48:22.635Z,16.10
2019-03-25T03:50:54.311Z,18.00
2019-03-25T03:53:24.913Z,18.00
2019-03-25T03:55:55.318Z,18.40
2019-03-25T03:58:29.175Z,16.47
2019-03-25T04:00:59.717Z,17.07
2019-03-25T04:03:30.147Z,17.17
2019-03-25T04:06:00.699Z,17.40
2019-03-25T04:08:31.131Z,17.87
2019-03-25T04:14:02.551Z,17.30
2019-03-25T04:16:33.008Z,17.60
2019-03-25T04:19:03.564Z,19.33
2019-03-25T04:21:36.027Z,18.43
2019-03-25T04:24:06.530Z,18.83
2019-03-25T04:26:36.934Z,18.67
2019-03-25T04:29:07.439Z,18.60
2019-03-25T04:31:37.930Z,18.40
2019-03-25T04:34:08.530Z,18.80
2019-03-25T04:36:39.151Z,19.13
2019-03-25T04:39:09.898Z,19.17
2019-03-25T04:41:40.398Z,19.20
2019-03-25T04:44:10.954Z,18.10
2019-03-25T04:46:41.499Z,17.23
2019-03-25T04:49:11.922Z,18.63
2019-03-25T04:51:45.054Z,17.67
2019-03-25T04:54:15.795Z,17.90
2019-03-25T04:56:46.687Z,19.07
2019-03-25T04:59:17.148Z,19.17
2019-03-25T05:01:47.613Z,18.73
2019-03-25T05:04:18.585Z,18.27
2019-03-25T05:06:49.037Z,18.13
2019-03-25T05:09:19.436Z,18.53
2019-03-25T05:11:50.249Z,18.83
2019-03-25T05:14:20.685Z,17.63
2019-03-25T05:16:52.282Z,17.87
2019-03-25T05:19:22.709Z,19.13
2019-03-25T05:21:53.219Z,19.17
2019-03-25T05:24:23.700Z,18.43
2019-03-25T05:26:59.710Z,18.47
2019-03-25T05:29:30.276Z,18.23
2019-03-25T05:32:00.683Z,20.77
2019-03-25T05:34:33.663Z,17.77
2019-03-25T05:37:04.152Z,17.67
2019-03-25T05:39:34.553Z,17.60
2019-03-25T05:42:05.006Z,17.67
2019-03-25T05:44:35.968Z,18.13
2019-03-25T05:47:06.429Z,19.53
2019-03-25T05:49:37.455Z,19.87
2019-03-25T05:52:08.787Z,20.83
2019-03-25T05:54:39.304Z,18.73
2019-03-25T05:57:09.784Z,21.37
2019-03-25T05:59:46.031Z,19.87
2019-03-25T06:02:16.908Z,19.33
2019-03-25T06:04:47.385Z,18.80
2019-03-25T06:07:17.822Z,19.13
2019-03-25T06:09:48.388Z,17.17
2019-03-25T06:12:19.530Z,18.37
2019-03-25T06:14:50.829Z,18.63
2019-03-25T06:17:21.377Z,19.50
2019-03-25T06:19:51.984Z,21.40
2019-03-25T06:22:22.546Z,20.60
2019-03-25T06:24:53.164Z,19.03
2019-03-25T06:27:24.162Z,21.33
2019-03-25T06:29:54.662Z,19.97
2019-03-25T06:32:25.219Z,21.20
2019-03-25T06:34:55.621Z,20.63
2019-03-25T06:37:26.045Z,20.07
2019-03-25T06:39:56.649Z,20.37
2019-03-25T06:42:27.074Z,20.43
2019-03-25T06:44:57.586Z,18.83
2019-03-25T06:47:28.012Z,20.70
2019-03-25T06:49:58.522Z,21.60
2019-03-25T06:52:29.756Z,20.77
2019-03-25T06:55:00.446Z,20.43
2019-03-25T06:57:31.105Z,20.53
2019-03-25T07:00:01.763Z,20.70
2019-03-25T07:02:32.297Z,21.47
2019-03-25T07:05:02.929Z,22.07
2019-03-25T07:07:33.486Z,20.67
2019-03-25T07:10:04.935Z,20.07
2019-03-25T07:12:36.731Z,20.73
2019-03-25T07:15:09.481Z,22.77
2019-03-25T07:17:40.065Z,20.67
2019-03-25T07:20:11.926Z,20.93
2019-03-25T07:22:42.398Z,20.57
2019-03-25T07:25:13.443Z,20.53
2019-03-25T07:27:43.867Z,20.40
2019-03-25T07:30:14.880Z,19.90
2019-03-25T07:32:45.366Z,20.33
2019-03-25T07:35:15.913Z,19.37
2019-03-25T07:37:46.297Z,19.70
2019-03-25T07:40:17.612Z,20.03
2019-03-25T07:42:48.237Z,19.93
2019-03-25T07:45:19.003Z,15.90
2019-03-25T07:47:49.387Z,16.90
2019-03-25T07:50:20.283Z,18.70
2019-03-25T07:52:51.498Z,18.70
2019-03-25T07:55:22.216Z,17.63
2019-03-25T07:57:52.774Z,13.63
2019-03-25T08:00:23.662Z,13.10
2019-03-25T08:03:01.365Z,12.83
2019-03-25T08:05:33.078Z,11.77
2019-03-25T08:08:03.555Z,11.83
2019-03-25T08:10:37.647Z,10.37
2019-03-25T08:13:08.278Z,13.33
2019-03-25T08:15:38.897Z,15.17
2019-03-25T08:18:09.560Z,14.17
2019-03-25T08:20:40.247Z,12.80
2019-03-25T08:23:10.711Z,14.37
2019-03-25T08:25:41.338Z,13.20
2019-03-25T08:28:11.902Z,14.60
2019-03-25T08:30:42.458Z,14.13
2019-03-25T08:33:13.447Z,15.10
2019-03-25T08:35:44.092Z,14.13
2019-03-25T08:38:15.670Z,13.53
2019-03-25T08:40:46.245Z,14.00
2019-03-25T08:43:16.883Z,13.47
2019-03-25T08:45:47.508Z,14.47
2019-03-25T08:48:18.038Z,13.50
2019-03-25T08:50:48.515Z,14.73
2019-03-25T08:53:21.575Z,13.60
2019-03-25T08:55:52.124Z,13.63
2019-03-25T08:58:22.571Z,14.33
2019-03-25T09:00:53.014Z,12.73
2019-03-25T09:03:23.516Z,13.97
2019-03-25T09:05:54.098Z,13.50
2019-03-25T09:08:24.638Z,13.03
2019-03-25T09:10:55.257Z,11.97
2019-03-25T09:13:25.730Z,11.23
2019-03-25T09:15:56.538Z,10.70
2019-03-25T09:18:27.081Z,10.73
2019-03-25T09:20:58.882Z,11.00
2019-03-25T09:23:29.326Z,10.07
2019-03-25T09:25:59.812Z,11.10
2019-03-25T09:28:30.470Z,12.27
2019-03-25T09:31:11.964Z,11.90
2019-03-25T09:33:43.375Z,12.23
2019-03-25T09:36:15.052Z,12.73
2019-03-25T09:38:45.908Z,11.93
2019-03-25T09:41:16.494Z,11.63
2019-03-25T09:43:47.247Z,12.53
2019-03-25T09:46:17.831Z,11.77
2019-03-25T09:48:48.674Z,12.00
2019-03-25T09:51:19.402Z,11.73
2019-03-25T09:53:51.055Z,11.67
2019-03-25T09:56:21.684Z,12.10
2019-03-25T09:58:52.359Z,10.30
2019-03-25T10:01:22.928Z,11.43
2019-03-25T10:03:53.779Z,11.83
2019-03-25T10:06:24.415Z,12.37
2019-03-25T10:08:55.033Z,10.90
2019-03-25T10:11:25.492Z,10.77
2019-03-25T10:13:57.901Z,9.70
2019-03-25T10:16:28.451Z,10.47
2019-03-25T10:25:09.581Z,12.23
2019-03-25T10:27:40.119Z,11.67
2019-03-25T10:30:14.106Z,11.90
2019-03-25T10:32:45.429Z,10.20
2019-03-25T10:35:16.710Z,10.63
2019-03-25T10:37:47.368Z,9.33
2019-03-25T10:40:18.155Z,8.23
2019-03-25T10:42:48.781Z,8.07
2019-03-25T10:45:19.451Z,9.07
2019-03-25T10:47:49.898Z,9.70
2019-03-25T10:50:20.523Z,10.37
2019-03-25T10:52:50.981Z,9.63
2019-03-25T10:55:22.327Z,9.13
2019-03-25T10:57:52.705Z,8.97
2019-03-25T11:00:23.843Z,8.37
2019-03-25T11:02:54.316Z,7.20
2019-03-25T11:05:24.791Z,6.40
2019-03-25T11:07:56.759Z,6.43
2019-03-25T11:10:27.546Z,6.30
2019-03-25T11:12:58.152Z,6.90
2019-03-25T11:15:28.844Z,5.60
2019-03-25T11:17:59.330Z,5.60
2019-03-25T11:20:29.866Z,6.07
2019-03-25T11:23:00.310Z,5.83
2019-03-25T11:25:30.887Z,5.67
2019-03-25T11:28:01.362Z,5.67
2019-03-25T11:30:53.938Z,5.10
2019-03-25T11:33:24.847Z,5.30
2019-03-25T11:35:55.477Z,4.93
2019-03-25T11:38:26.154Z,5.20
2019-03-25T11:40:57.692Z,5.00
2019-03-25T11:43:28.268Z,4.87
2019-03-25T11:45:58.884Z,5.37
2019-03-25T11:48:30.139Z,5.73
2019-03-25T11:51:00.745Z,4.50
2019-03-25T11:53:31.368Z,5.10
2019-03-25T11:56:02.648Z,4.60
2019-03-25T11:58:33.304Z,5.30
2019-03-25T12:01:03.986Z,6.03
2019-03-25T12:03:34.516Z,5.83
2019-03-25T12:06:05.250Z,5.30
2019-03-25T12:08:35.792Z,5.73
2019-03-25T12:11:06.495Z,5.90
2019-03-25T12:13:37.124Z,5.77
2019-03-25T12:16:07.862Z,6.37
2019-03-25T12:18:38.469Z,6.10
2019-03-25T12:21:09.054Z,5.83
2019-03-25T12:23:39.496Z,6.30
2019-03-25T12:26:10.134Z,6.57
2019-03-25T12:28:40.507Z,5.77
2019-03-25T12:31:11.153Z,5.50
2019-03-25T12:33:41.721Z,5.30
2019-03-25T12:36:12.392Z,6.17
2019-03-25T12:38:43.076Z,5.63
2019-03-25T12:41:13.642Z,4.73
2019-03-25T12:43:44.108Z,5.50
2019-03-25T12:46:14.709Z,5.63
2019-03-25T12:48:45.151Z,5.40
2019-03-25T12:51:15.732Z,4.57
2019-03-25T12:53:46.284Z,4.83
2019-03-25T12:56:17.655Z,5.50
2019-03-25T12:58:48.270Z,4.43
2019-03-25T13:01:19.633Z,4.20
2019-03-25T13:03:50.063Z,4.50
2019-03-25T13:06:20.683Z,4.30
2019-03-25T13:08:51.653Z,4.60
2019-03-25T13:11:22.137Z,4.77
2019-03-25T13:13:52.705Z,5.13
2019-03-25T13:16:23.337Z,4.37
2019-03-25T13:18:53.888Z,3.43
2019-03-25T13:21:24.503Z,2.97
2019-03-25T13:23:57.786Z,1.83
2019-03-25T13:26:28.488Z,2.07
2019-03-25T13:29:02.446Z,2.00
2019-03-25T13:31:31.336Z,1.63
2019-03-25T13:34:01.884Z,1.77
2019-03-25T13:36:32.285Z,2.30
2019-03-25T13:39:02.740Z,2.30
2019-03-25T13:41:33.301Z,2.30
2019-03-25T13:44:03.826Z,2.10
2019-03-25T13:46:35.906Z,2.10
2019-03-25T13:49:06.375Z,2.17
2019-03-25T13:51:36.885Z,2.30
2019-03-25T13:54:07.398Z,1.93
2019-03-25T13:56:38.719Z,2.17
2019-03-25T13:59:09.280Z,2.53
2019-03-25T14:01:39.744Z,2.43
2019-03-25T14:04:10.229Z,2.43
2019-03-25T14:06:40.951Z,2.43
2019-03-25T14:09:11.402Z,2.90
2019-03-25T14:11:43.278Z,3.67
2019-03-25T14:14:13.894Z,4.17
2019-03-25T14:16:44.348Z,3.93
2019-03-25T14:19:14.896Z,4.37
2019-03-25T14:21:45.472Z,4.87
2019-03-25T14:24:15.910Z,4.57
2019-03-25T14:26:46.502Z,4.37
2019-03-25T14:31:56.465Z,4.63
2019-03-25T14:34:29.759Z,4.00
2019-03-25T14:37:10.004Z,4.40
2019-03-25T14:39:41.304Z,4.27
2019-03-25T14:42:12.765Z,4.63
2019-03-25T14:44:45.399Z,4.47
2019-03-25T14:47:16.056Z,4.80
2019-03-25T14:49:47.657Z,4.37
2019-03-25T14:52:18.406Z,4.30
2019-03-25T14:54:50.822Z,4.03
2019-03-25T14:57:22.599Z,4.30
2019-03-25T15:00:02.527Z,4.57
2019-03-25T15:02:35.293Z,4.67
2019-03-25T15:05:08.549Z,4.57
2019-03-25T15:07:39.852Z,4.27
2019-03-25T15:10:11.211Z,4.50
2019-03-25T15:12:42.003Z,4.37
2019-03-25T15:15:12.869Z,4.37
2019-03-25T15:17:43.382Z,5.10
2019-03-25T15:20:14.840Z,4.33
2019-03-25T15:22:45.321Z,4.70
2019-03-25T15:25:15.903Z,4.23
2019-03-25T15:27:48.171Z,3.97
2019-03-25T15:30:19.743Z,4.33
2019-03-25T15:32:50.227Z,4.73
2019-03-25T15:35:20.669Z,4.90
2019-03-25T15:37:51.244Z,4.43
2019-03-25T15:40:21.760Z,4.90
2019-03-25T15:42:52.296Z,4.77
2019-03-25T15:45:22.851Z,4.93
2019-03-25T15:47:53.529Z,4.43
2019-03-25T15:50:24.152Z,5.33
2019-03-25T15:52:54.622Z,4.47
2019-03-25T15:55:25.154Z,4.63
2019-03-25T15:57:56.503Z,4.57
2019-03-25T16:00:27.135Z,5.13
2019-03-25T16:02:57.950Z,4.30
2019-03-25T16:05:29.094Z,3.90
2019-03-25T16:07:59.736Z,4.40
2019-03-25T16:10:30.223Z,4.53
2019-03-25T16:13:00.833Z,4.73
2019-03-25T16:15:42.774Z,5.07
2019-03-25T16:18:34.625Z,4.57
2019-03-25T16:21:05.882Z,3.13
2019-03-25T16:23:38.755Z,2.77
2019-03-25T16:26:10.489Z,3.13
2019-03-25T16:28:42.846Z,2.33
2019-03-25T16:31:14.738Z,2.70
2019-03-25T16:39:18.602Z,1.67
2019-03-25T16:42:10.639Z,2.00
2019-03-25T16:44:43.849Z,2.13
2019-03-25T16:47:13.561Z,1.57
2019-03-25T16:49:44.044Z,1.70
2019-03-25T16:52:14.566Z,1.67
2019-03-25T16:54:45.078Z,1.90
2019-03-25T16:57:15.615Z,1.50
2019-03-25T16:59:47.823Z,1.00
2019-03-25T17:02:18.521Z,1.80
2019-03-25T17:04:49.495Z,1.70
2019-03-25T17:07:20.023Z,1.80
2019-03-25T17:09:52.194Z,1.60
2019-03-25T17:12:22.741Z,1.37
2019-03-25T17:14:53.366Z,1.70
2019-03-25T17:17:23.905Z,1.47
2019-03-25T17:19:55.385Z,1.73
2019-03-25T17:22:25.813Z,2.00
2019-03-25T17:24:58.665Z,1.60
2019-03-25T17:27:30.843Z,1.70
2019-03-25T17:30:01.387Z,1.60
2019-03-25T17:32:31.925Z,1.77
2019-03-25T17:35:02.538Z,2.43
2019-03-25T17:37:33.083Z,1.80
2019-03-25T17:40:05.727Z,1.63
2019-03-25T17:42:36.225Z,2.30
2019-03-25T17:45:08.842Z,2.40
2019-03-25T17:47:40.012Z,2.10
2019-03-25T17:50:15.355Z,2.17
2019-03-25T17:52:45.887Z,2.17
2019-03-25T17:55:18.263Z,2.20
2019-03-25T17:57:48.969Z,2.13
2019-03-25T18:00:51.063Z,2.20
2019-03-25T18:03:21.691Z,2.30
2019-03-25T18:05:52.321Z,2.20
2019-03-25T18:08:22.893Z,1.90
2019-03-25T18:10:54.461Z,2.17
2019-03-25T18:13:24.893Z,2.30
2019-03-25T18:15:56.102Z,2.80
2019-03-25T18:18:27.019Z,2.30
2019-03-25T18:20:58.051Z,3.17
2019-03-25T18:23:29.123Z,2.67
2019-03-25T18:25:59.715Z,3.27
2019-03-25T18:28:30.718Z,2.50
2019-03-25T18:31:02.105Z,3.00
2019-03-25T18:33:33.086Z,2.53
2019-03-25T18:36:06.956Z,2.50
2019-03-25T18:38:37.539Z,3.30
2019-03-25T18:44:08.652Z,2.70
2019-03-25T18:46:39.660Z,2.60
2019-03-25T18:49:25.008Z,3.47
2019-03-25T18:51:55.555Z,3.07
2019-03-25T18:54:26.181Z,3.03
2019-03-25T18:57:00.578Z,2.80
2019-03-25T18:59:31.200Z,3.10
2019-03-25T19:02:02.860Z,3.33
2019-03-25T19:04:33.687Z,3.30
2019-03-25T19:07:19.141Z,3.40
2019-03-25T19:09:51.447Z,3.07
2019-03-25T19:12:22.017Z,3.30
2019-03-25T19:14:52.594Z,2.60
2019-03-25T19:17:23.150Z,2.90
2019-03-25T19:19:53.539Z,2.73
2019-03-25T19:22:24.028Z,3.33
2019-03-25T19:24:54.515Z,3.10
2019-03-25T19:27:25.041Z,3.40
2019-03-25T19:29:55.425Z,2.57
2019-03-25T19:32:25.897Z,3.50
2019-03-25T19:34:56.395Z,3.00
2019-03-25T19:37:31.089Z,3.30
2019-03-25T19:40:00.690Z,3.50
2019-03-25T19:42:34.738Z,3.77
2019-03-25T19:45:08.124Z,3.43
2019-03-25T19:47:39.435Z,3.90
2019-03-25T19:50:11.523Z,3.23
2019-03-25T19:52:42.888Z,3.60
2019-03-25T19:55:13.868Z,3.57
2019-03-25T19:57:44.409Z,3.53
2019-03-25T20:00:15.388Z,3.53
2019-03-25T20:02:46.716Z,3.67
2019-03-25T20:05:17.266Z,4.07
2019-03-25T20:07:48.207Z,3.67
2019-03-25T20:10:32.309Z,3.17
2019-03-25T20:13:03.247Z,2.77
2019-03-25T20:15:45.652Z,3.57
2019-03-25T20:18:06.358Z,2.87
2019-03-25T20:20:36.711Z,2.53
2019-03-25T20:23:07.470Z,2.90
2019-03-25T20:25:37.966Z,2.50
2019-03-25T20:28:10.851Z,3.17
2019-03-25T20:30:42.076Z,3.03
2019-03-25T20:33:12.673Z,3.07
2019-03-25T20:35:43.684Z,2.97
2019-03-25T20:38:14.172Z,2.43
2019-03-25T20:40:44.617Z,2.70
2019-03-25T20:43:15.235Z,2.80
2019-03-25T20:48:25.399Z,2.70
2019-03-25T20:50:56.048Z,2.93
2019-03-25T20:53:26.510Z,2.43
2019-03-25T20:55:57.607Z,2.90
2019-03-25T20:58:28.103Z,2.77
2019-03-25T21:00:59.522Z,2.70
2019-03-25T21:03:30.977Z,2.83
2019-03-25T21:06:03.034Z,2.60
2019-03-25T21:08:33.635Z,2.43
2019-03-25T21:11:04.217Z,2.57
2019-03-25T21:13:34.699Z,2.63
2019-03-25T21:16:05.358Z,2.47
2019-03-25T21:18:35.920Z,2.10
2019-03-25T21:21:06.870Z,2.60
2019-03-25T21:23:37.439Z,2.23
2019-03-25T21:26:10.868Z,1.67
2019-03-25T21:28:40.229Z,1.80
2019-03-25T21:31:10.760Z,2.30
2019-03-25T21:33:41.534Z,2.03
2019-03-25T21:36:13.608Z,2.37
2019-03-25T21:38:46.250Z,2.03
2019-03-25T21:41:18.382Z,2.37
2019-03-25T21:43:48.871Z,1.73
2019-03-25T21:46:20.576Z,1.73
2019-03-25T21:48:51.029Z,2.00
2019-03-25T21:51:21.529Z,2.00
2019-03-25T21:53:53.574Z,2.07
2019-03-25T21:56:24.037Z,2.30
2019-03-25T21:58:54.524Z,1.67
2019-03-25T22:01:24.984Z,2.27
2019-03-25T22:03:58.118Z,2.20
2019-03-25T22:06:29.116Z,1.73
2019-03-25T22:09:00.087Z,2.13
2019-03-25T22:11:30.611Z,2.10
2019-03-25T22:14:04.336Z,2.20
2019-03-25T22:16:38.317Z,2.50
2019-03-25T22:19:12.412Z,2.07
2019-03-25T22:21:43.260Z,2.37
2019-03-25T22:24:14.267Z,2.67
2019-03-25T22:26:47.716Z,2.27
2019-03-25T22:29:18.185Z,2.20
2019-03-25T22:31:49.829Z,2.10
2019-03-25T22:34:20.558Z,2.57
2019-03-25T22:36:51.022Z,2.53
2019-03-25T22:39:21.512Z,2.83
2019-03-25T22:41:52.026Z,2.10
2019-03-25T22:44:22.539Z,2.40
2019-03-25T22:46:53.130Z,2.27
2019-03-25T22:58:35.322Z,2.30
2019-03-25T23:01:06.761Z,2.43
2019-03-25T23:03:39.461Z,2.70
2019-03-25T23:06:14.663Z,3.17
2019-03-25T23:08:45.692Z,4.07
2019-03-25T23:11:16.258Z,2.83
2019-03-25T23:13:46.812Z,2.97
2019-03-25T23:16:17.435Z,3.60
2019-03-25T23:18:48.054Z,2.93
2019-03-25T23:21:18.689Z,3.00
2019-03-25T23:23:49.322Z,3.10
2019-03-25T23:26:19.783Z,3.60
2019-03-25T23:28:50.366Z,3.30
2019-03-25T23:31:20.830Z,3.30
2019-03-25T23:33:54.915Z,3.00
2019-03-25T23:36:25.415Z,2.90
2019-03-25T23:38:58.722Z,2.73
2019-03-25T23:41:29.713Z,2.80
2019-03-25T23:44:00.218Z,2.73
2019-03-25T23:46:32.337Z,3.33
2019-03-25T23:49:03.135Z,3.40
2019-03-25T23:51:37.315Z,3.13
2019-03-25T23:54:11.842Z,3.17
2019-03-25T23:56:42.849Z,2.67
2019-03-25T23:59:13.478Z,3.57
